sensor_id;sensor_type;location;lat;lon;timestamp;temperature;humidity
10848;DHT22;5477;48.806;9.154;2023-12-04T00:00:12;-3.30;99.90
10848;DHT22;5477;48.806;9.154;2023-12-04T00:02:41;-3.40;99.90
10848;DHT22;5477;48.806;9.154;2023-12-04T00:05:10;-3.40;99.90
10848;DHT22;5477;48.806;9.154;2023-12-04T00:07:38;-3.30;99.90
10848;DHT22;5477;48.806;9.154;2023-12-04T00:10:07;-3.40;99.90
10848;DHT22;5477;48.806;9.154;2023-12-04T00:12:35;-3.50;99.90
10848;DHT22;5477;48.806;9.154;2023-12-04T00:15:04;-3.50;99.90
10848;DHT22;5477;48.806;9.154;2023-12-04T00:17:32;-3.60;99.90
10848;DHT22;5477;48.806;9.154;2023-12-04T00:20:00;-3.60;99.90
10848;DHT22;5477;48.806;9.154;2023-12-04T00:22:30;-3.70;99.90
10848;DHT22;5477;48.806;9.154;2023-12-04T00:24:58;-3.60;99.90
10848;DHT22;5477;48.806;9.154;2023-12-04T00:27:26;-3.60;99.90
10848;DHT22;5477;48.806;9.154;2023-12-04T00:29:54;-3.60;99.90
10848;DHT22;5477;48.806;9.154;2023-12-04T00:32:24;-3.50;99.90
10848;DHT22;5477;48.806;9.154;2023-12-04T00:34:52;-3.50;99.90
10848;DHT22;5477;48.806;9.154;2023-12-04T00:37:20;-3.40;99.90
10848;DHT22;5477;48.806;9.154;2023-12-04T00:39:50;-3.40;99.90
10848;DHT22;5477;48.806;9.154;2023-12-04T00:42:18;-3.40;99.90
10848;DHT22;5477;48.806;9.154;2023-12-04T00:44:46;-3.40;99.90
10848;DHT22;5477;48.806;9.154;2023-12-04T00:47:14;-3.30;99.90
10848;DHT22;5477;48.806;9.154;2023-12-04T00:49:42;-3.20;99.90
10848;DHT22;5477;48.806;9.154;2023-12-04T00:52:10;-3.20;99.90
10848;DHT22;5477;48.806;9.154;2023-12-04T00:54:39;-3.20;99.90
10848;DHT22;5477;48.806;9.154;2023-12-04T00:57:09;-3.20;99.90
10848;DHT22;5477;48.806;9.154;2023-12-04T00:59:37;-3.30;99.90
10848;DHT22;5477;48.806;9.154;2023-12-04T01:02:06;-3.50;99.90
10848;DHT22;5477;48.806;9.154;2023-12-04T01:04:34;-3.60;99.90
10848;DHT22;5477;48.806;9.154;2023-12-04T01:07:03;-3.70;99.90
10848;DHT22;5477;48.806;9.154;2023-12-04T01:09:31;-3.70;99.90
10848;DHT22;5477;48.806;9.154;2023-12-04T01:11:59;-3.60;99.90
10848;DHT22;5477;48.806;9.154;2023-12-04T01:14:28;-3.60;99.90
10848;DHT22;5477;48.806;9.154;2023-12-04T01:16:56;-3.70;99.90
10848;DHT22;5477;48.806;9.154;2023-12-04T01:19:24;-3.70;99.90
10848;DHT22;5477;48.806;9.154;2023-12-04T01:21:53;-3.70;99.90
10848;DHT22;5477;48.806;9.154;2023-12-04T01:24:21;-3.60;99.90
10848;DHT22;5477;48.806;9.154;2023-12-04T01:26:49;-3.70;99.90
10848;DHT22;5477;48.806;9.154;2023-12-04T01:29:17;-3.60;99.90
10848;DHT22;5477;48.806;9.154;2023-12-04T01:31:47;-3.60;99.90
10848;DHT22;5477;48.806;9.154;2023-12-04T01:34:15;-3.70;99.90
10848;DHT22;5477;48.806;9.154;2023-12-04T01:36:43;-3.80;99.90
10848;DHT22;5477;48.806;9.154;2023-12-04T01:39:11;-3.80;99.90
10848;DHT22;5477;48.806;9.154;2023-12-04T01:41:39;-3.70;99.90
10848;DHT22;5477;48.806;9.154;2023-12-04T01:44:08;-3.70;99.90
10848;DHT22;5477;48.806;9.154;2023-12-04T01:46:37;-3.70;99.90
10848;DHT22;5477;48.806;9.154;2023-12-04T01:49:07;-3.60;99.90
10848;DHT22;5477;48.806;9.154;2023-12-04T01:51:35;-3.50;99.90
10848;DHT22;5477;48.806;9.154;2023-12-04T01:54:04;-3.30;99.90
10848;DHT22;5477;48.806;9.154;2023-12-04T01:56:33;-3.20;99.90
10848;DHT22;5477;48.806;9.154;2023-12-04T01:59:02;-3.10;99.90
10848;DHT22;5477;48.806;9.154;2023-12-04T02:01:30;-3.10;99.90
10848;DHT22;5477;48.806;9.154;2023-12-04T02:03:59;-3.20;99.90
10848;DHT22;5477;48.806;9.154;2023-12-04T02:06:30;-3.20;99.90
10848;DHT22;5477;48.806;9.154;2023-12-04T02:08:59;-3.30;99.90
10848;DHT22;5477;48.806;9.154;2023-12-04T02:11:28;-3.40;99.90
10848;DHT22;5477;48.806;9.154;2023-12-04T02:13:56;-3.50;99.90
10848;DHT22;5477;48.806;9.154;2023-12-04T02:16:26;-3.60;99.90
10848;DHT22;5477;48.806;9.154;2023-12-04T02:18:55;-3.70;99.90
10848;DHT22;5477;48.806;9.154;2023-12-04T02:21:24;-3.70;99.90
10848;DHT22;5477;48.806;9.154;2023-12-04T02:23:53;-3.70;99.90
10848;DHT22;5477;48.806;9.154;2023-12-04T02:26:24;-3.80;99.90
10848;DHT22;5477;48.806;9.154;2023-12-04T02:28:58;-3.80;99.90
10848;DHT22;5477;48.806;9.154;2023-12-04T02:31:27;-3.80;99.90
10848;DHT22;5477;48.806;9.154;2023-12-04T02:33:58;-3.70;99.90
10848;DHT22;5477;48.806;9.154;2023-12-04T02:36:28;-3.60;99.90
10848;DHT22;5477;48.806;9.154;2023-12-04T02:38:59;-3.60;99.90
10848;DHT22;5477;48.806;9.154;2023-12-04T02:41:27;-3.60;99.90
10848;DHT22;5477;48.806;9.154;2023-12-04T02:43:55;-3.60;99.90
10848;DHT22;5477;48.806;9.154;2023-12-04T02:46:23;-3.60;99.90
10848;DHT22;5477;48.806;9.154;2023-12-04T02:48:52;-3.50;99.90
10848;DHT22;5477;48.806;9.154;2023-12-04T02:51:20;-3.50;99.90
10848;DHT22;5477;48.806;9.154;2023-12-04T02:53:48;-3.60;99.90
10848;DHT22;5477;48.806;9.154;2023-12-04T02:56:18;-3.70;99.90
10848;DHT22;5477;48.806;9.154;2023-12-04T02:58:46;-3.80;99.90
10848;DHT22;5477;48.806;9.154;2023-12-04T03:01:14;-3.90;99.90
10848;DHT22;5477;48.806;9.154;2023-12-04T03:03:42;-3.80;99.90
10848;DHT22;5477;48.806;9.154;2023-12-04T03:06:10;-3.80;99.90
10848;DHT22;5477;48.806;9.154;2023-12-04T03:08:38;-3.70;99.90
10848;DHT22;5477;48.806;9.154;2023-12-04T03:11:06;-3.60;99.90
10848;DHT22;5477;48.806;9.154;2023-12-04T03:13:35;-3.50;99.90
10848;DHT22;5477;48.806;9.154;2023-12-04T03:16:04;-3.50;99.90
10848;DHT22;5477;48.806;9.154;2023-12-04T03:18:32;-3.50;99.90
10848;DHT22;5477;48.806;9.154;2023-12-04T03:21:01;-3.40;99.90
10848;DHT22;5477;48.806;9.154;2023-12-04T03:23:29;-3.30;99.90
10848;DHT22;5477;48.806;9.154;2023-12-04T03:25:57;-3.30;99.90
10848;DHT22;5477;48.806;9.154;2023-12-04T03:28:25;-3.30;99.90
10848;DHT22;5477;48.806;9.154;2023-12-04T03:30:54;-3.30;99.90
10848;DHT22;5477;48.806;9.154;2023-12-04T03:33:22;-3.20;99.90
10848;DHT22;5477;48.806;9.154;2023-12-04T03:35:50;-3.10;99.90
10848;DHT22;5477;48.806;9.154;2023-12-04T03:38:18;-3.20;99.90
10848;DHT22;5477;48.806;9.154;2023-12-04T03:40:46;-3.30;99.90
10848;DHT22;5477;48.806;9.154;2023-12-04T03:43:14;-3.40;99.90
10848;DHT22;5477;48.806;9.154;2023-12-04T03:45:42;-3.40;99.90
10848;DHT22;5477;48.806;9.154;2023-12-04T03:48:12;-3.40;99.90
10848;DHT22;5477;48.806;9.154;2023-12-04T03:50:40;-3.50;99.90
10848;DHT22;5477;48.806;9.154;2023-12-04T03:53:09;-3.50;99.90
10848;DHT22;5477;48.806;9.154;2023-12-04T03:55:37;-3.60;99.90
10848;DHT22;5477;48.806;9.154;2023-12-04T03:58:06;-3.50;99.90
10848;DHT22;5477;48.806;9.154;2023-12-04T04:00:34;-3.30;99.90
10848;DHT22;5477;48.806;9.154;2023-12-04T04:03:02;-3.30;99.90
10848;DHT22;5477;48.806;9.154;2023-12-04T04:05:32;-3.30;99.90
10848;DHT22;5477;48.806;9.154;2023-12-04T04:08:01;-3.20;99.90
10848;DHT22;5477;48.806;9.154;2023-12-04T04:10:29;-3.20;99.90
10848;DHT22;5477;48.806;9.154;2023-12-04T04:12:57;-3.10;99.90
10848;DHT22;5477;48.806;9.154;2023-12-04T04:15:25;-3.00;99.90
10848;DHT22;5477;48.806;9.154;2023-12-04T04:17:53;-3.00;99.90
10848;DHT22;5477;48.806;9.154;2023-12-04T04:20:22;-2.90;99.90
10848;DHT22;5477;48.806;9.154;2023-12-04T04:22:51;-2.90;99.90
10848;DHT22;5477;48.806;9.154;2023-12-04T04:25:20;-2.90;99.90
10848;DHT22;5477;48.806;9.154;2023-12-04T04:27:49;-2.90;99.90
10848;DHT22;5477;48.806;9.154;2023-12-04T04:30:18;-2.90;99.90
10848;DHT22;5477;48.806;9.154;2023-12-04T04:32:46;-2.90;99.90
10848;DHT22;5477;48.806;9.154;2023-12-04T04:35:14;-2.90;99.90
10848;DHT22;5477;48.806;9.154;2023-12-04T04:37:42;-2.90;99.90
10848;DHT22;5477;48.806;9.154;2023-12-04T04:40:14;-2.80;99.90
10848;DHT22;5477;48.806;9.154;2023-12-04T04:42:42;-2.80;99.90
10848;DHT22;5477;48.806;9.154;2023-12-04T04:45:10;-2.70;99.90
10848;DHT22;5477;48.806;9.154;2023-12-04T04:47:38;-2.70;99.90
10848;DHT22;5477;48.806;9.154;2023-12-04T04:50:07;-2.70;99.90
10848;DHT22;5477;48.806;9.154;2023-12-04T04:52:35;-2.70;99.90
10848;DHT22;5477;48.806;9.154;2023-12-04T04:55:05;-2.60;99.90
10848;DHT22;5477;48.806;9.154;2023-12-04T04:57:34;-2.50;99.90
10848;DHT22;5477;48.806;9.154;2023-12-04T05:00:02;-2.60;99.90
10848;DHT22;5477;48.806;9.154;2023-12-04T05:02:30;-2.70;99.90
10848;DHT22;5477;48.806;9.154;2023-12-04T05:05:02;-2.70;99.90
10848;DHT22;5477;48.806;9.154;2023-12-04T05:07:30;-2.70;99.90
10848;DHT22;5477;48.806;9.154;2023-12-04T05:09:58;-2.80;99.90
10848;DHT22;5477;48.806;9.154;2023-12-04T05:12:26;-2.80;99.90
10848;DHT22;5477;48.806;9.154;2023-12-04T05:14:55;-2.70;99.90
10848;DHT22;5477;48.806;9.154;2023-12-04T05:17:23;-2.70;99.90
10848;DHT22;5477;48.806;9.154;2023-12-04T05:19:51;-2.60;99.90
10848;DHT22;5477;48.806;9.154;2023-12-04T05:22:20;-2.50;99.90
10848;DHT22;5477;48.806;9.154;2023-12-04T05:24:48;-2.50;99.90
10848;DHT22;5477;48.806;9.154;2023-12-04T05:27:16;-2.30;99.90
10848;DHT22;5477;48.806;9.154;2023-12-04T05:29:44;-2.40;99.90
10848;DHT22;5477;48.806;9.154;2023-12-04T05:32:13;-2.30;99.90
10848;DHT22;5477;48.806;9.154;2023-12-04T05:34:41;-2.30;99.90
10848;DHT22;5477;48.806;9.154;2023-12-04T05:37:09;-2.40;99.90
10848;DHT22;5477;48.806;9.154;2023-12-04T05:39:37;-2.30;99.90
10848;DHT22;5477;48.806;9.154;2023-12-04T05:42:06;-2.40;99.90
10848;DHT22;5477;48.806;9.154;2023-12-04T05:44:34;-2.40;99.90
10848;DHT22;5477;48.806;9.154;2023-12-04T05:47:02;-2.40;99.90
10848;DHT22;5477;48.806;9.154;2023-12-04T05:49:31;-2.40;99.90
10848;DHT22;5477;48.806;9.154;2023-12-04T05:52:00;-2.40;99.90
10848;DHT22;5477;48.806;9.154;2023-12-04T05:54:28;-2.40;99.90
10848;DHT22;5477;48.806;9.154;2023-12-04T05:56:56;-2.40;99.90
10848;DHT22;5477;48.806;9.154;2023-12-04T05:59:24;-2.30;99.90
10848;DHT22;5477;48.806;9.154;2023-12-04T06:01:52;-2.20;99.90
10848;DHT22;5477;48.806;9.154;2023-12-04T06:04:20;-2.20;99.90
10848;DHT22;5477;48.806;9.154;2023-12-04T06:06:49;-2.30;99.90
10848;DHT22;5477;48.806;9.154;2023-12-04T06:09:17;-2.30;99.90
10848;DHT22;5477;48.806;9.154;2023-12-04T06:11:45;-2.30;99.90
10848;DHT22;5477;48.806;9.154;2023-12-04T06:14:13;-2.40;99.90
10848;DHT22;5477;48.806;9.154;2023-12-04T06:16:41;-2.50;99.90
10848;DHT22;5477;48.806;9.154;2023-12-04T06:19:09;-2.50;99.90
10848;DHT22;5477;48.806;9.154;2023-12-04T06:21:38;-2.50;99.90
10848;DHT22;5477;48.806;9.154;2023-12-04T06:24:08;-2.50;99.90
10848;DHT22;5477;48.806;9.154;2023-12-04T06:26:41;-2.50;99.90
10848;DHT22;5477;48.806;9.154;2023-12-04T06:29:10;-2.40;99.90
10848;DHT22;5477;48.806;9.154;2023-12-04T06:31:39;-2.40;99.90
10848;DHT22;5477;48.806;9.154;2023-12-04T06:34:07;-2.30;99.90
10848;DHT22;5477;48.806;9.154;2023-12-04T06:36:38;-2.30;99.90
10848;DHT22;5477;48.806;9.154;2023-12-04T06:39:10;-2.30;99.90
10848;DHT22;5477;48.806;9.154;2023-12-04T06:41:39;-2.30;99.90
10848;DHT22;5477;48.806;9.154;2023-12-04T06:44:09;-2.30;99.90
10848;DHT22;5477;48.806;9.154;2023-12-04T06:46:38;-2.40;99.90
10848;DHT22;5477;48.806;9.154;2023-12-04T06:49:06;-2.40;99.90
10848;DHT22;5477;48.806;9.154;2023-12-04T06:51:37;-2.30;99.90
10848;DHT22;5477;48.806;9.154;2023-12-04T06:54:05;-2.30;99.90
10848;DHT22;5477;48.806;9.154;2023-12-04T06:56:34;-2.20;99.90
10848;DHT22;5477;48.806;9.154;2023-12-04T06:59:02;-2.10;99.90
10848;DHT22;5477;48.806;9.154;2023-12-04T07:01:31;-2.10;99.90
10848;DHT22;5477;48.806;9.154;2023-12-04T07:03:58;-2.00;99.90
10848;DHT22;5477;48.806;9.154;2023-12-04T07:06:26;-2.00;99.90
10848;DHT22;5477;48.806;9.154;2023-12-04T07:08:54;-2.00;99.90
10848;DHT22;5477;48.806;9.154;2023-12-04T07:11:22;-2.00;99.90
10848;DHT22;5477;48.806;9.154;2023-12-04T07:13:52;-2.20;99.90
10848;DHT22;5477;48.806;9.154;2023-12-04T07:16:21;-2.20;99.90
10848;DHT22;5477;48.806;9.154;2023-12-04T07:18:48;-2.10;99.90
10848;DHT22;5477;48.806;9.154;2023-12-04T07:21:17;-2.10;99.90
10848;DHT22;5477;48.806;9.154;2023-12-04T07:23:45;-2.10;99.90
10848;DHT22;5477;48.806;9.154;2023-12-04T07:26:12;-2.00;99.90
10848;DHT22;5477;48.806;9.154;2023-12-04T07:28:40;-2.00;99.90
10848;DHT22;5477;48.806;9.154;2023-12-04T07:31:10;-2.00;99.90
10848;DHT22;5477;48.806;9.154;2023-12-04T07:33:38;-2.00;99.90
10848;DHT22;5477;48.806;9.154;2023-12-04T07:36:07;-2.00;99.90
10848;DHT22;5477;48.806;9.154;2023-12-04T07:38:35;-2.10;99.90
10848;DHT22;5477;48.806;9.154;2023-12-04T07:41:03;-2.10;99.90
10848;DHT22;5477;48.806;9.154;2023-12-04T07:43:31;-2.20;99.90
10848;DHT22;5477;48.806;9.154;2023-12-04T07:45:59;-2.00;99.90
10848;DHT22;5477;48.806;9.154;2023-12-04T07:48:29;-2.00;99.90
10848;DHT22;5477;48.806;9.154;2023-12-04T07:50:57;-2.00;99.90
10848;DHT22;5477;48.806;9.154;2023-12-04T07:53:25;-1.90;99.90
10848;DHT22;5477;48.806;9.154;2023-12-04T07:55:53;-1.90;99.90
10848;DHT22;5477;48.806;9.154;2023-12-04T07:58:21;-1.90;99.90
10848;DHT22;5477;48.806;9.154;2023-12-04T08:00:49;-2.00;99.90
10848;DHT22;5477;48.806;9.154;2023-12-04T08:03:17;-1.90;99.90
10848;DHT22;5477;48.806;9.154;2023-12-04T08:05:46;-1.80;99.90
10848;DHT22;5477;48.806;9.154;2023-12-04T08:08:15;-1.70;99.90
10848;DHT22;5477;48.806;9.154;2023-12-04T08:10:43;-1.70;99.90
10848;DHT22;5477;48.806;9.154;2023-12-04T08:13:10;-1.70;99.90
10848;DHT22;5477;48.806;9.154;2023-12-04T08:15:39;-1.70;99.90
10848;DHT22;5477;48.806;9.154;2023-12-04T08:18:07;-1.70;99.90
10848;DHT22;5477;48.806;9.154;2023-12-04T08:20:35;-1.70;99.90
10848;DHT22;5477;48.806;9.154;2023-12-04T08:23:08;-1.60;99.90
10848;DHT22;5477;48.806;9.154;2023-12-04T08:25:36;-1.60;99.90
10848;DHT22;5477;48.806;9.154;2023-12-04T08:28:06;-1.50;99.90
10848;DHT22;5477;48.806;9.154;2023-12-04T08:30:35;-1.50;99.90
10848;DHT22;5477;48.806;9.154;2023-12-04T08:33:04;-1.50;99.90
10848;DHT22;5477;48.806;9.154;2023-12-04T08:35:33;-1.50;99.90
10848;DHT22;5477;48.806;9.154;2023-12-04T08:38:02;-1.40;99.90
10848;DHT22;5477;48.806;9.154;2023-12-04T08:40:31;-1.30;99.90
10848;DHT22;5477;48.806;9.154;2023-12-04T08:42:59;-1.10;99.90
10848;DHT22;5477;48.806;9.154;2023-12-04T08:45:27;-1.10;99.90
10848;DHT22;5477;48.806;9.154;2023-12-04T08:47:55;-1.00;99.90
10848;DHT22;5477;48.806;9.154;2023-12-04T08:50:23;-0.90;99.90
10848;DHT22;5477;48.806;9.154;2023-12-04T08:52:52;-0.90;99.90
10848;DHT22;5477;48.806;9.154;2023-12-04T08:55:20;-0.80;99.90
10848;DHT22;5477;48.806;9.154;2023-12-04T08:57:49;-0.70;99.90
10848;DHT22;5477;48.806;9.154;2023-12-04T09:00:18;-0.70;99.90
10848;DHT22;5477;48.806;9.154;2023-12-04T09:02:47;-0.70;99.90
10848;DHT22;5477;48.806;9.154;2023-12-04T09:05:30;-0.60;99.90
10848;DHT22;5477;48.806;9.154;2023-12-04T09:07:59;-0.60;99.90
10848;DHT22;5477;48.806;9.154;2023-12-04T09:10:47;-0.50;99.90
10848;DHT22;5477;48.806;9.154;2023-12-04T09:13:36;-0.60;99.90
10848;DHT22;5477;48.806;9.154;2023-12-04T09:16:06;-0.60;99.90
10848;DHT22;5477;48.806;9.154;2023-12-04T09:18:34;-0.70;99.90
10848;DHT22;5477;48.806;9.154;2023-12-04T09:21:04;-0.70;99.90
10848;DHT22;5477;48.806;9.154;2023-12-04T09:23:32;-0.80;99.90
10848;DHT22;5477;48.806;9.154;2023-12-04T09:26:00;-0.80;99.90
10848;DHT22;5477;48.806;9.154;2023-12-04T09:28:28;-0.70;99.90
10848;DHT22;5477;48.806;9.154;2023-12-04T09:30:58;-0.70;99.90
10848;DHT22;5477;48.806;9.154;2023-12-04T09:33:26;-0.50;99.90
10848;DHT22;5477;48.806;9.154;2023-12-04T09:35:54;-0.50;99.90
10848;DHT22;5477;48.806;9.154;2023-12-04T09:38:22;-0.50;99.90
10848;DHT22;5477;48.806;9.154;2023-12-04T09:40:52;-0.50;99.90
10848;DHT22;5477;48.806;9.154;2023-12-04T09:43:20;-0.40;99.90
10848;DHT22;5477;48.806;9.154;2023-12-04T09:45:48;-0.30;99.90
10848;DHT22;5477;48.806;9.154;2023-12-04T09:48:18;-0.30;99.90
10848;DHT22;5477;48.806;9.154;2023-12-04T09:50:47;-0.30;99.90
10848;DHT22;5477;48.806;9.154;2023-12-04T09:53:16;-0.20;99.90
10848;DHT22;5477;48.806;9.154;2023-12-04T09:55:44;-0.20;99.90
10848;DHT22;5477;48.806;9.154;2023-12-04T09:58:15;-0.20;99.90
10848;DHT22;5477;48.806;9.154;2023-12-04T10:00:45;0.00;99.90
10848;DHT22;5477;48.806;9.154;2023-12-04T10:03:13;0.10;99.90
10848;DHT22;5477;48.806;9.154;2023-12-04T10:05:44;0.10;99.90
10848;DHT22;5477;48.806;9.154;2023-12-04T10:08:13;0.10;99.90
10848;DHT22;5477;48.806;9.154;2023-12-04T10:10:41;0.10;99.90
10848;DHT22;5477;48.806;9.154;2023-12-04T10:13:09;0.30;99.90
10848;DHT22;5477;48.806;9.154;2023-12-04T10:15:46;0.40;99.90
10848;DHT22;5477;48.806;9.154;2023-12-04T10:18:25;0.50;99.90
10848;DHT22;5477;48.806;9.154;2023-12-04T10:20:56;0.50;99.90
10848;DHT22;5477;48.806;9.154;2023-12-04T10:23:37;0.50;99.90
10848;DHT22;5477;48.806;9.154;2023-12-04T10:26:05;0.60;99.90
10848;DHT22;5477;48.806;9.154;2023-12-04T10:28:34;0.70;99.90
10848;DHT22;5477;48.806;9.154;2023-12-04T10:31:03;0.70;99.90
10848;DHT22;5477;48.806;9.154;2023-12-04T10:33:33;0.70;99.90
10848;DHT22;5477;48.806;9.154;2023-12-04T10:36:10;0.80;99.90
10848;DHT22;5477;48.806;9.154;2023-12-04T10:38:39;0.80;99.90
10848;DHT22;5477;48.806;9.154;2023-12-04T10:41:12;0.80;99.90
10848;DHT22;5477;48.806;9.154;2023-12-04T10:43:47;0.90;99.90
10848;DHT22;5477;48.806;9.154;2023-12-04T10:46:27;1.00;99.90
10848;DHT22;5477;48.806;9.154;2023-12-04T10:48:57;1.20;99.90
10848;DHT22;5477;48.806;9.154;2023-12-04T10:51:28;1.40;99.90
10848;DHT22;5477;48.806;9.154;2023-12-04T10:53:57;1.50;99.90
10848;DHT22;5477;48.806;9.154;2023-12-04T10:56:30;1.70;99.90
10848;DHT22;5477;48.806;9.154;2023-12-04T10:59:00;1.80;99.90
10848;DHT22;5477;48.806;9.154;2023-12-04T11:01:29;1.90;99.90
10848;DHT22;5477;48.806;9.154;2023-12-04T11:03:59;2.00;99.90
10848;DHT22;5477;48.806;9.154;2023-12-04T11:06:39;2.00;99.90
10848;DHT22;5477;48.806;9.154;2023-12-04T11:09:08;2.20;99.90
10848;DHT22;5477;48.806;9.154;2023-12-04T11:11:42;2.20;99.90
10848;DHT22;5477;48.806;9.154;2023-12-04T11:14:14;2.20;99.90
10848;DHT22;5477;48.806;9.154;2023-12-04T11:16:47;2.10;99.90
10848;DHT22;5477;48.806;9.154;2023-12-04T11:19:20;2.00;99.90
10848;DHT22;5477;48.806;9.154;2023-12-04T11:21:53;2.00;99.90
10848;DHT22;5477;48.806;9.154;2023-12-04T11:24:21;2.00;99.90
10848;DHT22;5477;48.806;9.154;2023-12-04T11:26:49;1.90;99.90
10848;DHT22;5477;48.806;9.154;2023-12-04T11:29:18;1.90;99.90
10848;DHT22;5477;48.806;9.154;2023-12-04T11:31:46;1.90;99.90
10848;DHT22;5477;48.806;9.154;2023-12-04T11:34:14;1.90;99.90
10848;DHT22;5477;48.806;9.154;2023-12-04T11:36:44;1.80;99.90
10848;DHT22;5477;48.806;9.154;2023-12-04T11:39:13;1.90;99.90
10848;DHT22;5477;48.806;9.154;2023-12-04T11:41:41;1.80;99.90
10848;DHT22;5477;48.806;9.154;2023-12-04T11:44:13;1.90;99.90
10848;DHT22;5477;48.806;9.154;2023-12-04T11:46:55;1.90;99.90
10848;DHT22;5477;48.806;9.154;2023-12-04T11:49:27;2.00;99.90
10848;DHT22;5477;48.806;9.154;2023-12-04T11:51:56;2.00;99.90
10848;DHT22;5477;48.806;9.154;2023-12-04T11:54:27;2.10;99.90
10848;DHT22;5477;48.806;9.154;2023-12-04T11:57:10;2.10;99.90
10848;DHT22;5477;48.806;9.154;2023-12-04T11:59:46;1.80;99.90
10848;DHT22;5477;48.806;9.154;2023-12-04T12:02:15;1.60;99.90
10848;DHT22;5477;48.806;9.154;2023-12-04T12:04:44;1.40;99.90
10848;DHT22;5477;48.806;9.154;2023-12-04T12:07:13;1.30;99.90
10848;DHT22;5477;48.806;9.154;2023-12-04T12:09:44;1.10;99.90
10848;DHT22;5477;48.806;9.154;2023-12-04T12:12:15;1.00;99.90
10848;DHT22;5477;48.806;9.154;2023-12-04T12:14:43;1.10;99.90
10848;DHT22;5477;48.806;9.154;2023-12-04T12:17:11;1.10;99.90
10848;DHT22;5477;48.806;9.154;2023-12-04T12:19:41;1.00;99.90
10848;DHT22;5477;48.806;9.154;2023-12-04T12:22:09;0.90;99.90
10848;DHT22;5477;48.806;9.154;2023-12-04T12:24:37;1.00;99.90
10848;DHT22;5477;48.806;9.154;2023-12-04T12:27:06;1.00;99.90
10848;DHT22;5477;48.806;9.154;2023-12-04T12:29:36;1.00;99.90
10848;DHT22;5477;48.806;9.154;2023-12-04T12:32:05;1.00;99.90
10848;DHT22;5477;48.806;9.154;2023-12-04T12:34:33;1.10;99.90
10848;DHT22;5477;48.806;9.154;2023-12-04T12:37:03;1.10;99.90
10848;DHT22;5477;48.806;9.154;2023-12-04T12:39:33;1.20;99.90
10848;DHT22;5477;48.806;9.154;2023-12-04T12:42:02;1.10;99.90
10848;DHT22;5477;48.806;9.154;2023-12-04T12:44:38;1.20;99.90
10848;DHT22;5477;48.806;9.154;2023-12-04T12:47:07;1.30;99.90
10848;DHT22;5477;48.806;9.154;2023-12-04T12:49:35;1.40;99.90
10848;DHT22;5477;48.806;9.154;2023-12-04T12:52:08;1.30;99.90
10848;DHT22;5477;48.806;9.154;2023-12-04T12:54:37;1.30;99.90
10848;DHT22;5477;48.806;9.154;2023-12-04T12:57:05;1.20;99.90
10848;DHT22;5477;48.806;9.154;2023-12-04T12:59:34;1.20;99.90
10848;DHT22;5477;48.806;9.154;2023-12-04T13:02:04;1.20;99.90
10848;DHT22;5477;48.806;9.154;2023-12-04T13:04:37;1.20;99.90
10848;DHT22;5477;48.806;9.154;2023-12-04T13:07:05;1.30;99.90
10848;DHT22;5477;48.806;9.154;2023-12-04T13:09:33;1.50;99.90
10848;DHT22;5477;48.806;9.154;2023-12-04T13:12:02;1.50;99.90
10848;DHT22;5477;48.806;9.154;2023-12-04T13:14:31;1.40;99.90
10848;DHT22;5477;48.806;9.154;2023-12-04T13:16:59;1.40;99.90
10848;DHT22;5477;48.806;9.154;2023-12-04T13:19:29;1.40;99.90
10848;DHT22;5477;48.806;9.154;2023-12-04T13:21:58;1.40;99.90
10848;DHT22;5477;48.806;9.154;2023-12-04T13:24:26;1.50;99.90
10848;DHT22;5477;48.806;9.154;2023-12-04T13:26:54;1.60;99.90
10848;DHT22;5477;48.806;9.154;2023-12-04T13:29:22;1.70;99.90
10848;DHT22;5477;48.806;9.154;2023-12-04T13:31:50;1.70;99.90
10848;DHT22;5477;48.806;9.154;2023-12-04T13:34:18;1.70;99.90
10848;DHT22;5477;48.806;9.154;2023-12-04T13:36:48;1.70;99.90
10848;DHT22;5477;48.806;9.154;2023-12-04T13:39:16;1.70;99.90
10848;DHT22;5477;48.806;9.154;2023-12-04T13:41:47;1.70;99.90
10848;DHT22;5477;48.806;9.154;2023-12-04T13:44:33;1.70;99.90
10848;DHT22;5477;48.806;9.154;2023-12-04T13:47:02;1.70;99.90
10848;DHT22;5477;48.806;9.154;2023-12-04T13:49:29;1.70;99.90
10848;DHT22;5477;48.806;9.154;2023-12-04T13:51:59;1.60;99.90
10848;DHT22;5477;48.806;9.154;2023-12-04T13:54:27;1.60;99.90
10848;DHT22;5477;48.806;9.154;2023-12-04T13:57:10;1.60;99.90
10848;DHT22;5477;48.806;9.154;2023-12-04T13:59:45;1.60;99.90
10848;DHT22;5477;48.806;9.154;2023-12-04T14:02:13;1.60;99.90
10848;DHT22;5477;48.806;9.154;2023-12-04T14:04:42;1.60;99.90
10848;DHT22;5477;48.806;9.154;2023-12-04T14:07:12;1.50;99.90
10848;DHT22;5477;48.806;9.154;2023-12-04T14:09:41;1.50;99.90
10848;DHT22;5477;48.806;9.154;2023-12-04T14:12:09;1.50;99.90
10848;DHT22;5477;48.806;9.154;2023-12-04T14:14:37;1.50;99.90
10848;DHT22;5477;48.806;9.154;2023-12-04T14:17:05;1.60;99.90
10848;DHT22;5477;48.806;9.154;2023-12-04T14:19:34;1.50;99.90
10848;DHT22;5477;48.806;9.154;2023-12-04T14:22:02;1.50;99.90
10848;DHT22;5477;48.806;9.154;2023-12-04T14:24:32;1.50;99.90
10848;DHT22;5477;48.806;9.154;2023-12-04T14:27:02;1.60;99.90
10848;DHT22;5477;48.806;9.154;2023-12-04T14:29:32;1.70;99.90
10848;DHT22;5477;48.806;9.154;2023-12-04T14:32:00;1.70;99.90
10848;DHT22;5477;48.806;9.154;2023-12-04T14:34:28;1.70;99.90
10848;DHT22;5477;48.806;9.154;2023-12-04T14:36:56;1.70;99.90
10848;DHT22;5477;48.806;9.154;2023-12-04T14:39:24;1.80;99.90
10848;DHT22;5477;48.806;9.154;2023-12-04T14:41:54;1.90;99.90
10848;DHT22;5477;48.806;9.154;2023-12-04T14:44:23;1.90;99.90
10848;DHT22;5477;48.806;9.154;2023-12-04T14:46:51;1.70;99.90
10848;DHT22;5477;48.806;9.154;2023-12-04T14:49:19;1.60;99.90
10848;DHT22;5477;48.806;9.154;2023-12-04T14:51:47;1.50;99.90
10848;DHT22;5477;48.806;9.154;2023-12-04T14:54:15;1.60;99.90
10848;DHT22;5477;48.806;9.154;2023-12-04T14:56:49;1.60;99.90
10848;DHT22;5477;48.806;9.154;2023-12-04T14:59:36;1.60;99.90
10848;DHT22;5477;48.806;9.154;2023-12-04T15:02:36;1.60;99.90
10848;DHT22;5477;48.806;9.154;2023-12-04T15:05:37;1.60;99.90
10848;DHT22;5477;48.806;9.154;2023-12-04T15:08:33;1.50;99.90
10848;DHT22;5477;48.806;9.154;2023-12-04T15:11:46;1.50;99.90
10848;DHT22;5477;48.806;9.154;2023-12-04T15:14:43;1.40;99.90
10848;DHT22;5477;48.806;9.154;2023-12-04T15:17:16;1.40;99.90
10848;DHT22;5477;48.806;9.154;2023-12-04T15:19:56;1.40;99.90
10848;DHT22;5477;48.806;9.154;2023-12-04T15:22:46;1.60;99.90
10848;DHT22;5477;48.806;9.154;2023-12-04T15:25:14;1.60;99.90
10848;DHT22;5477;48.806;9.154;2023-12-04T15:27:44;1.60;99.90
10848;DHT22;5477;48.806;9.154;2023-12-04T15:30:13;1.60;99.90
10848;DHT22;5477;48.806;9.154;2023-12-04T15:32:41;1.60;99.90
10848;DHT22;5477;48.806;9.154;2023-12-04T15:35:08;1.70;99.90
10848;DHT22;5477;48.806;9.154;2023-12-04T15:37:40;1.70;99.90
10848;DHT22;5477;48.806;9.154;2023-12-04T15:40:08;1.70;99.90
10848;DHT22;5477;48.806;9.154;2023-12-04T15:42:37;1.70;99.90
10848;DHT22;5477;48.806;9.154;2023-12-04T15:45:06;1.70;99.90
10848;DHT22;5477;48.806;9.154;2023-12-04T15:47:35;1.70;99.90
10848;DHT22;5477;48.806;9.154;2023-12-04T15:50:04;1.70;99.90
10848;DHT22;5477;48.806;9.154;2023-12-04T15:52:34;1.70;99.90
10848;DHT22;5477;48.806;9.154;2023-12-04T15:55:06;1.60;99.90
10848;DHT22;5477;48.806;9.154;2023-12-04T15:57:33;1.50;99.90
10848;DHT22;5477;48.806;9.154;2023-12-04T16:00:02;1.50;99.90
10848;DHT22;5477;48.806;9.154;2023-12-04T16:02:39;1.40;99.90
10848;DHT22;5477;48.806;9.154;2023-12-04T16:05:07;1.40;99.90
10848;DHT22;5477;48.806;9.154;2023-12-04T16:07:38;1.30;99.90